createdAt,value
2023-05-12T00:00:47.799Z,1002.8
2023-05-12T00:02:04.095Z,1002.8
2023-05-12T00:03:20.399Z,1002.8
2023-05-12T00:04:36.667Z,1002.8
2023-05-12T00:05:52.973Z,1002.8
2023-05-12T00:07:09.269Z,1002.8
2023-05-12T00:08:25.555Z,1002.8
2023-05-12T00:09:40.852Z,1002.8
2023-05-12T00:10:57.147Z,1002.8
2023-05-12T00:12:13.450Z,1002.7
2023-05-12T00:13:29.747Z,1002.8
2023-05-12T00:14:46.038Z,1002.8
2023-05-12T00:16:02.333Z,1002.8
2023-05-12T00:17:18.628Z,1002.8
2023-05-12T00:18:34.922Z,1002.8
2023-05-12T00:19:51.000Z,1002.8
2023-05-12T00:21:07.511Z,1002.8
2023-05-12T00:22:23.790Z,1002.8
2023-05-12T00:23:40.071Z,1002.7
2023-05-12T00:24:56.382Z,1002.8
2023-05-12T00:26:11.682Z,1002.7
2023-05-12T00:27:27.976Z,1002.8
2023-05-12T00:28:44.260Z,1002.8
2023-05-12T00:30:00.573Z,1002.7
2023-05-12T00:31:16.842Z,1002.7
2023-05-12T00:32:33.152Z,1002.8
2023-05-12T00:33:49.433Z,1002.8
2023-05-12T00:35:05.737Z,1002.7
2023-05-12T00:36:22.014Z,1002.7
2023-05-12T00:37:38.322Z,1002.8
2023-05-12T00:38:54.610Z,1002.7
2023-05-12T00:40:10.901Z,1002.7
2023-05-12T00:41:27.203Z,1002.8
2023-05-12T00:42:42.495Z,1002.7
2023-05-12T00:43:58.789Z,1002.8
2023-05-12T00:45:15.080Z,1002.8
2023-05-12T00:46:31.397Z,1002.8
2023-05-12T00:47:47.674Z,1002.8
2023-05-12T00:49:03.953Z,1002.8
2023-05-12T00:50:20.255Z,1002.8
2023-05-12T00:51:36.556Z,1002.8
2023-05-12T00:52:52.848Z,1002.8
2023-05-12T00:54:09.139Z,1002.8
2023-05-12T00:55:25.423Z,1002.8
2023-05-12T00:56:41.726Z,1002.8
2023-05-12T00:57:58.021Z,1002.8
2023-05-12T00:59:13.318Z,1002.9
2023-05-12T01:00:29.618Z,1002.8
2023-05-12T01:01:45.902Z,1002.8
2023-05-12T01:03:02.198Z,1002.7
2023-05-12T01:04:18.482Z,1002.7
2023-05-12T01:05:34.790Z,1002.8
2023-05-12T01:06:51.070Z,1002.8
2023-05-12T01:08:07.358Z,1002.8
2023-05-12T01:09:23.661Z,1002.7
2023-05-12T01:10:39.952Z,1002.8
2023-05-12T01:11:56.261Z,1002.8
2023-05-12T01:13:12.530Z,1002.8
2023-05-12T01:14:28.826Z,1002.8
2023-05-12T01:15:44.139Z,1002.8
2023-05-12T01:17:00.423Z,1002.9
2023-05-12T01:18:16.718Z,1002.9
2023-05-12T01:19:33.019Z,1002.8
2023-05-12T01:20:49.321Z,1002.9
2023-05-12T01:22:05.593Z,1002.9
2023-05-12T01:23:21.896Z,1002.9
2023-05-12T01:24:38.189Z,1003
2023-05-12T01:25:54.491Z,1003
2023-05-12T01:27:10.763Z,1003
2023-05-12T01:28:27.065Z,1003
2023-05-12T01:29:43.352Z,1003
2023-05-12T01:30:59.643Z,1003
2023-05-12T01:32:14.958Z,1002.9
2023-05-12T01:33:31.262Z,1002.9
2023-05-12T01:34:47.543Z,1002.9
2023-05-12T01:36:03.856Z,1002.9
2023-05-12T01:37:20.150Z,1002.9
2023-05-12T01:38:36.439Z,1002.9
2023-05-12T01:39:52.717Z,1002.8
2023-05-12T01:41:08.999Z,1002.9
2023-05-12T01:42:25.295Z,1002.9
2023-05-12T01:43:41.617Z,1002.8
2023-05-12T01:44:57.907Z,1002.9
2023-05-12T01:46:14.202Z,1002.8
2023-05-12T01:47:30.474Z,1002.8
2023-05-12T01:48:45.785Z,1002.9
2023-05-12T01:50:02.090Z,1002.9
2023-05-12T01:51:18.379Z,1002.9
2023-05-12T01:52:34.649Z,1002.9
2023-05-12T01:53:50.946Z,1002.9
2023-05-12T01:55:07.246Z,1002.9
2023-05-12T01:56:23.528Z,1002.9
2023-05-12T01:57:39.834Z,1002.9
2023-05-12T01:58:56.132Z,1002.9
2023-05-12T02:00:12.416Z,1002.9
2023-05-12T02:01:28.711Z,1002.9
2023-05-12T02:02:44.991Z,1002.9
2023-05-12T02:04:01.296Z,1002.9
2023-05-12T02:05:16.623Z,1002.9
2023-05-12T02:06:32.900Z,1002.9
2023-05-12T02:07:49.177Z,1002.9
2023-05-12T02:09:05.490Z,1002.9
2023-05-12T02:10:21.787Z,1003
2023-05-12T02:11:38.061Z,1003
2023-05-12T02:12:54.349Z,1003
2023-05-12T02:14:10.652Z,1003
2023-05-12T02:15:26.930Z,1003
2023-05-12T02:16:43.227Z,1003
2023-05-12T02:17:59.516Z,1002.9
2023-05-12T02:19:15.807Z,1002.9
2023-05-12T02:20:32.119Z,1002.9
2023-05-12T02:21:47.443Z,1002.9
2023-05-12T02:23:03.735Z,1002.9
2023-05-12T02:24:19.995Z,1003
2023-05-12T02:25:36.310Z,1003
2023-05-12T02:26:52.611Z,1003
2023-05-12T02:28:08.893Z,1003
2023-05-12T02:29:25.186Z,1003
2023-05-12T02:30:41.459Z,1003
2023-05-12T02:31:57.772Z,1002.9
2023-05-12T02:33:14.056Z,1002.9
2023-05-12T02:34:30.338Z,1002.9
2023-05-12T02:35:46.635Z,1002.9
2023-05-12T02:37:02.937Z,1002.9
2023-05-12T02:38:18.229Z,1002.9
2023-05-12T02:39:34.542Z,1002.9
2023-05-12T02:40:50.831Z,1002.9
2023-05-12T02:42:07.138Z,1002.8
2023-05-12T02:43:23.000Z,1002.9
2023-05-12T02:44:39.717Z,1002.8
2023-05-12T02:45:56.001Z,1002.9
2023-05-12T02:47:12.301Z,1002.9
2023-05-12T02:48:28.571Z,1003
2023-05-12T02:49:44.871Z,1003
2023-05-12T02:51:01.178Z,1003
2023-05-12T02:52:17.453Z,1003
2023-05-12T02:53:33.763Z,1003
2023-05-12T02:54:49.000Z,1003
2023-05-12T02:56:05.290Z,1003
2023-05-12T02:57:21.591Z,1002.9
2023-05-12T02:58:37.844Z,1002.9
2023-05-12T02:59:54.090Z,1002.9
2023-05-12T03:01:10.378Z,1002.9
2023-05-12T03:02:26.683Z,1002.9
2023-05-12T03:03:42.000Z,1002.9
2023-05-12T03:04:59.144Z,1002.9
2023-05-12T03:06:15.430Z,1002.9
2023-05-12T03:07:31.691Z,1002.9
2023-05-12T03:08:47.962Z,1002.9
2023-05-12T03:10:04.186Z,1002.9
2023-05-12T03:11:19.452Z,1002.9
2023-05-12T03:12:35.688Z,1003
2023-05-12T03:13:51.908Z,1002.9
2023-05-12T03:15:08.156Z,1003
2023-05-12T03:16:24.384Z,1003
2023-05-12T03:17:40.657Z,1003
2023-05-12T03:18:56.891Z,1003
2023-05-12T03:20:13.125Z,1003
2023-05-12T03:21:29.341Z,1003
2023-05-12T03:22:45.579Z,1002.9
2023-05-12T03:24:01.849Z,1003
2023-05-12T03:25:18.068Z,1003
2023-05-12T03:26:34.304Z,1003
2023-05-12T03:27:49.586Z,1002.9
2023-05-12T03:29:05.790Z,1003
2023-05-12T03:30:22.051Z,1003
2023-05-12T03:31:38.274Z,1002.9
2023-05-12T03:32:54.503Z,1002.9
2023-05-12T03:34:10.753Z,1003
2023-05-12T03:35:26.998Z,1003
2023-05-12T03:36:43.219Z,1003
2023-05-12T03:37:59.467Z,1003
2023-05-12T03:39:15.726Z,1003
2023-05-12T03:40:31.946Z,1003
2023-05-12T03:41:48.194Z,1002.9
2023-05-12T03:43:04.420Z,1003
2023-05-12T03:44:19.710Z,1003.1
2023-05-12T03:45:35.919Z,1003
2023-05-12T03:46:52.176Z,1003
2023-05-12T03:48:08.400Z,1003
2023-05-12T03:49:24.629Z,1003
2023-05-12T03:50:40.887Z,1003
2023-05-12T03:51:56.149Z,1003
2023-05-12T03:53:12.370Z,1002.9
2023-05-12T03:54:28.617Z,1003
2023-05-12T03:55:44.839Z,1003
2023-05-12T03:57:01.094Z,1003
2023-05-12T03:58:17.324Z,1003
2023-05-12T03:59:33.584Z,1002.9
2023-05-12T04:00:49.800Z,1002.9
2023-05-12T04:02:06.042Z,1003
2023-05-12T04:03:22.275Z,1003
2023-05-12T04:04:38.518Z,1003
2023-05-12T04:05:54.778Z,1003
2023-05-12T04:07:10.991Z,1003
2023-05-12T04:08:26.252Z,1003.1
2023-05-12T04:09:42.484Z,1003.1
2023-05-12T04:10:58.737Z,1003
2023-05-12T04:12:14.970Z,1003
2023-05-12T04:13:31.205Z,1003
2023-05-12T04:14:47.446Z,1003
2023-05-12T04:16:03.703Z,1003
2023-05-12T04:17:19.932Z,1003
2023-05-12T04:18:36.158Z,1003
2023-05-12T04:19:52.394Z,1003
2023-05-12T04:21:08.656Z,1003
2023-05-12T04:22:24.903Z,1003.1
2023-05-12T04:23:41.115Z,1003
2023-05-12T04:24:56.000Z,1003
2023-05-12T04:26:12.619Z,1003
2023-05-12T04:27:28.855Z,1003
2023-05-12T04:28:45.101Z,1003
2023-05-12T04:30:01.319Z,1002.9
2023-05-12T04:31:17.566Z,1003
2023-05-12T04:32:33.800Z,1003
2023-05-12T04:33:50.062Z,1003
2023-05-12T04:35:06.281Z,1003
2023-05-12T04:36:22.518Z,1003.1
2023-05-12T04:37:38.761Z,1003.1
2023-05-12T04:38:55.004Z,1003.1
2023-05-12T04:40:11.260Z,1003.1
2023-05-12T04:41:26.514Z,1003.1
2023-05-12T04:42:42.738Z,1003.2
2023-05-12T04:43:58.963Z,1003.1
2023-05-12T04:45:15.225Z,1003.2
2023-05-12T04:46:31.442Z,1003.1
2023-05-12T04:47:47.705Z,1003.2
2023-05-12T04:49:03.926Z,1003.2
2023-05-12T04:50:20.164Z,1003.2
2023-05-12T04:51:36.406Z,1003.2
2023-05-12T04:52:52.662Z,1003.2
2023-05-12T04:54:08.905Z,1003.2
2023-05-12T04:55:25.151Z,1003.1
2023-05-12T04:56:41.357Z,1003.2
2023-05-12T04:57:56.610Z,1003.2
2023-05-12T04:59:12.869Z,1003.2
2023-05-12T05:00:29.119Z,1003.1
2023-05-12T05:01:45.359Z,1003.1
2023-05-12T05:03:01.591Z,1003.2
2023-05-12T05:04:17.805Z,1003.2
2023-05-12T05:05:34.072Z,1003.2
2023-05-12T05:06:50.276Z,1003.2
2023-05-12T05:08:06.512Z,1003.2
2023-05-12T05:09:22.758Z,1003.1
2023-05-12T05:10:39.033Z,1003.2
2023-05-12T05:11:55.228Z,1003.2
2023-05-12T05:13:11.469Z,1003.2
2023-05-12T05:14:26.721Z,1003.2
2023-05-12T05:15:42.990Z,1003.2
2023-05-12T05:16:59.201Z,1003.2
2023-05-12T05:18:15.444Z,1003.2
2023-05-12T05:19:31.000Z,1003.3
2023-05-12T05:20:47.920Z,1003.3
2023-05-12T05:22:04.154Z,1003.3
2023-05-12T05:23:20.424Z,1003.3
2023-05-12T05:24:36.665Z,1003.3
2023-05-12T05:25:52.888Z,1003.3
2023-05-12T05:27:09.108Z,1003.4
2023-05-12T05:28:25.353Z,1003.4
2023-05-12T05:29:41.593Z,1003.4
2023-05-12T05:30:56.869Z,1003.5
2023-05-12T05:32:13.000Z,1003.5
2023-05-12T05:33:29.320Z,1003.5
2023-05-12T05:34:45.556Z,1003.5
2023-05-12T05:36:01.815Z,1003.5
2023-05-12T05:37:18.048Z,1003.4
2023-05-12T05:38:34.305Z,1003.5
2023-05-12T05:39:50.514Z,1003.4
2023-05-12T05:41:06.782Z,1003.5
2023-05-12T05:42:23.034Z,1003.4
2023-05-12T05:43:39.230Z,1003.4
2023-05-12T05:44:55.473Z,1003.5
2023-05-12T05:46:11.705Z,1003.5
2023-05-12T05:47:26.963Z,1003.4
2023-05-12T05:48:43.232Z,1003.5
2023-05-12T05:49:59.445Z,1003.5
2023-05-12T05:51:15.687Z,1003.5
2023-05-12T05:52:31.943Z,1003.5
2023-05-12T05:53:48.159Z,1003.5
2023-05-12T05:55:04.396Z,1003.6
2023-05-12T05:56:20.657Z,1003.5
2023-05-12T05:57:36.899Z,1003.5
2023-05-12T05:58:53.118Z,1003.5
2023-05-12T06:00:09.348Z,1003.5
2023-05-12T06:01:25.614Z,1003.5
2023-05-12T06:02:41.835Z,1003.5
2023-05-12T06:03:57.119Z,1003.5
2023-05-12T06:05:13.319Z,1003.6
2023-05-12T06:06:29.000Z,1003.5
2023-05-12T06:07:45.828Z,1003.6
2023-05-12T06:09:02.034Z,1003.6
2023-05-12T06:10:18.300Z,1003.6
2023-05-12T06:11:34.550Z,1003.6
2023-05-12T06:12:50.752Z,1003.5
2023-05-12T06:14:07.018Z,1003.6
2023-05-12T06:15:23.229Z,1003.6
2023-05-12T06:16:39.466Z,1003.5
2023-05-12T06:17:55.718Z,1003.6
2023-05-12T06:19:11.974Z,1003.6
2023-05-12T06:20:27.234Z,1003.6
2023-05-12T06:21:43.439Z,1003.6
2023-05-12T06:22:59.720Z,1003.6
2023-05-12T06:24:15.949Z,1003.7
2023-05-12T06:25:32.197Z,1003.7
2023-05-12T06:26:48.428Z,1003.7
2023-05-12T06:28:04.638Z,1003.8
2023-05-12T06:29:20.914Z,1003.7
2023-05-12T06:30:37.126Z,1003.8
2023-05-12T06:31:53.383Z,1003.8
2023-05-12T06:33:09.000Z,1003.8
2023-05-12T06:34:25.828Z,1003.8
2023-05-12T06:35:42.077Z,1003.8
2023-05-12T06:36:57.000Z,1003.8
2023-05-12T06:38:13.558Z,1003.9
2023-05-12T06:39:29.796Z,1003.9
2023-05-12T06:40:46.067Z,1003.8
2023-05-12T06:42:02.277Z,1003.8
2023-05-12T06:43:18.514Z,1003.8
2023-05-12T06:44:34.756Z,1003.8
2023-05-12T06:45:50.998Z,1003.8
2023-05-12T06:47:07.235Z,1003.8
2023-05-12T06:48:23.476Z,1003.8
2023-05-12T06:49:39.742Z,1003.8
2023-05-12T06:50:55.956Z,1003.8
2023-05-12T06:52:12.190Z,1003.8
2023-05-12T06:53:28.556Z,1003.8
2023-05-12T06:54:44.790Z,1003.7
2023-05-12T06:56:01.040Z,1003.8
2023-05-12T06:57:17.293Z,1003.7
2023-05-12T06:58:33.508Z,1003.7
2023-05-12T06:59:49.738Z,1003.7
2023-05-12T07:01:05.981Z,1003.7
2023-05-12T07:02:22.219Z,1003.7
2023-05-12T07:03:38.492Z,1003.8
2023-05-12T07:04:54.710Z,1003.7
2023-05-12T07:06:10.962Z,1003.8
2023-05-12T07:07:27.192Z,1003.8
2023-05-12T07:08:43.417Z,1003.8
2023-05-12T07:09:58.697Z,1003.8
2023-05-12T07:11:14.923Z,1003.7
2023-05-12T07:12:31.000Z,1003.7
2023-05-12T07:13:47.393Z,1003.7
2023-05-12T07:15:03.626Z,1003.7
2023-05-12T07:16:19.897Z,1003.7
2023-05-12T07:17:36.112Z,1003.7
2023-05-12T07:18:52.338Z,1003.7
2023-05-12T07:20:08.609Z,1003.7
2023-05-12T07:21:24.850Z,1003.7
2023-05-12T07:22:41.091Z,1003.7
2023-05-12T07:23:57.304Z,1003.8
2023-05-12T07:25:13.540Z,1003.8
2023-05-12T07:26:28.795Z,1003.8
2023-05-12T07:27:45.063Z,1003.8
2023-05-12T07:29:01.314Z,1003.8
2023-05-12T07:30:17.548Z,1003.8
2023-05-12T07:31:33.749Z,1003.7
2023-05-12T07:32:50.020Z,1003.7
2023-05-12T07:34:06.254Z,1003.7
2023-05-12T07:35:22.473Z,1003.7
2023-05-12T07:36:38.706Z,1003.7
2023-05-12T07:37:54.968Z,1003.6
2023-05-12T07:39:11.191Z,1003.7
2023-05-12T07:40:27.453Z,1003.6
2023-05-12T07:41:43.672Z,1003.7
2023-05-12T07:42:58.917Z,1003.7
2023-05-12T07:44:15.165Z,1003.7
2023-05-12T07:45:31.402Z,1003.7
2023-05-12T07:46:47.636Z,1003.7
2023-05-12T07:48:03.867Z,1003.7
2023-05-12T07:49:20.135Z,1003.7
2023-05-12T07:50:36.378Z,1003.7
2023-05-12T07:51:52.590Z,1003.6
2023-05-12T07:53:08.834Z,1003.7
2023-05-12T07:54:25.066Z,1003.7
2023-05-12T07:55:41.314Z,1003.7
2023-05-12T07:56:57.545Z,1003.6
2023-05-12T07:58:13.787Z,1003.7
2023-05-12T07:59:29.037Z,1003.6
2023-05-12T08:00:45.311Z,1003.6
2023-05-12T08:02:01.559Z,1003.7
2023-05-12T08:03:17.748Z,1003.7
2023-05-12T08:04:33.990Z,1003.7
2023-05-12T08:05:50.232Z,1003.7
2023-05-12T08:07:05.504Z,1003.7
2023-05-12T08:08:21.765Z,1003.7
2023-05-12T08:09:38.006Z,1003.7
2023-05-12T08:10:54.206Z,1003.7
2023-05-12T08:12:10.460Z,1003.7
2023-05-12T08:13:26.685Z,1003.7
2023-05-12T08:14:42.924Z,1003.7
2023-05-12T08:15:59.207Z,1003.7
2023-05-12T08:17:15.433Z,1003.8
2023-05-12T08:18:31.682Z,1003.8
2023-05-12T08:19:47.890Z,1003.8
2023-05-12T08:21:04.166Z,1003.7
2023-05-12T08:22:20.357Z,1003.8
2023-05-12T08:23:35.632Z,1003.9
2023-05-12T08:24:51.888Z,1003.8
2023-05-12T08:26:08.133Z,1003.8
2023-05-12T08:27:24.372Z,1003.8
2023-05-12T08:28:40.606Z,1003.8
2023-05-12T08:29:56.825Z,1003.8
2023-05-12T08:31:13.000Z,1003.8
2023-05-12T08:32:29.304Z,1003.9
2023-05-12T08:33:45.529Z,1003.9
2023-05-12T08:35:01.798Z,1003.9
2023-05-12T08:36:18.037Z,1003.9
2023-05-12T08:37:34.276Z,1003.9
2023-05-12T08:38:50.516Z,1003.9
2023-05-12T08:40:05.771Z,1003.9
2023-05-12T08:41:22.011Z,1003.9
2023-05-12T08:42:38.251Z,1003.9
2023-05-12T08:43:54.490Z,1003.8
2023-05-12T08:45:10.730Z,1003.9
2023-05-12T08:46:26.000Z,1003.9
2023-05-12T08:47:43.209Z,1003.8
2023-05-12T08:48:59.448Z,1003.9
2023-05-12T08:50:15.667Z,1003.9
2023-05-12T08:51:31.927Z,1003.9
2023-05-12T08:52:48.167Z,1003.9
2023-05-12T08:54:04.406Z,1003.9
2023-05-12T08:55:20.646Z,1003.8
2023-05-12T08:56:35.901Z,1003.8
2023-05-12T08:57:52.140Z,1003.9
2023-05-12T08:59:08.379Z,1003.9
2023-05-12T09:00:24.619Z,1003.9
2023-05-12T09:01:40.858Z,1003.9
2023-05-12T09:02:57.098Z,1003.9
2023-05-12T09:04:13.338Z,1003.9
2023-05-12T09:05:29.577Z,1004
2023-05-12T09:06:45.816Z,1003.8
2023-05-12T09:08:02.000Z,1003.9
2023-05-12T09:09:18.283Z,1003.9
2023-05-12T09:10:34.535Z,1003.9
2023-05-12T09:11:50.774Z,1003.9
2023-05-12T09:13:06.030Z,1003.8
2023-05-12T09:14:22.276Z,1003.8
2023-05-12T09:15:38.479Z,1003.8
2023-05-12T09:16:54.749Z,1003.9
2023-05-12T09:18:10.989Z,1003.8
2023-05-12T09:19:27.229Z,1003.8
2023-05-12T09:20:43.469Z,1003.9
2023-05-12T09:21:59.718Z,1003.9
2023-05-12T09:23:15.948Z,1003.8
2023-05-12T09:24:32.188Z,1003.8
2023-05-12T09:25:48.427Z,1003.8
2023-05-12T09:27:04.667Z,1003.8
2023-05-12T09:28:20.907Z,1003.8
2023-05-12T09:29:36.163Z,1003.8
2023-05-12T09:30:52.403Z,1003.8
2023-05-12T09:32:08.643Z,1003.8
2023-05-12T09:33:24.883Z,1003.7
2023-05-12T09:34:41.123Z,1003.8
2023-05-12T09:35:57.348Z,1003.8
2023-05-12T09:37:13.603Z,1003.8
2023-05-12T09:38:29.844Z,1003.7
2023-05-12T09:39:46.084Z,1003.8
2023-05-12T09:41:02.324Z,1003.7
2023-05-12T09:42:18.583Z,1003.7
2023-05-12T09:43:34.804Z,1003.7
2023-05-12T09:44:51.044Z,1003.7
2023-05-12T09:46:06.300Z,1003.7
2023-05-12T09:47:22.541Z,1003.7
2023-05-12T09:48:38.781Z,1003.7
2023-05-12T09:49:55.021Z,1003.7
2023-05-12T09:51:11.262Z,1003.7
2023-05-12T09:52:27.502Z,1003.7
2023-05-12T09:53:43.715Z,1003.8
2023-05-12T09:54:59.983Z,1003.8
2023-05-12T09:56:16.223Z,1003.7
2023-05-12T09:57:32.464Z,1003.7
2023-05-12T09:58:48.704Z,1003.7
2023-05-12T10:00:04.945Z,1003.7
2023-05-12T10:01:21.185Z,1003.7
2023-05-12T10:02:36.442Z,1003.7
2023-05-12T10:03:52.661Z,1003.7
2023-05-12T10:05:08.923Z,1003.7
2023-05-12T10:06:25.148Z,1003.7
2023-05-12T10:07:41.404Z,1003.7
2023-05-12T10:08:57.644Z,1003.6
2023-05-12T10:10:13.885Z,1003.7
2023-05-12T10:11:30.094Z,1003.7
2023-05-12T10:12:46.331Z,1003.7
2023-05-12T10:14:02.604Z,1003.7
2023-05-12T10:15:18.844Z,1003.7
2023-05-12T10:16:35.084Z,1003.7
2023-05-12T10:17:51.325Z,1003.6
2023-05-12T10:19:06.581Z,1003.7
2023-05-12T10:20:22.821Z,1003.6
2023-05-12T10:21:39.061Z,1003.6
2023-05-12T10:22:55.301Z,1003.6
2023-05-12T10:24:11.541Z,1003.6
2023-05-12T10:25:27.781Z,1003.6
2023-05-12T10:26:44.000Z,1003.6
2023-05-12T10:28:00.261Z,1003.6
2023-05-12T10:29:16.502Z,1003.6
2023-05-12T10:30:32.754Z,1003.6
2023-05-12T10:31:48.983Z,1003.6
2023-05-12T10:33:05.223Z,1003.6
2023-05-12T10:34:21.462Z,1003.6
2023-05-12T10:35:36.718Z,1003.6
2023-05-12T10:36:52.943Z,1003.6
2023-05-12T10:38:09.198Z,1003.5
2023-05-12T10:39:25.408Z,1003.6
2023-05-12T10:40:41.677Z,1003.5
2023-05-12T10:41:57.000Z,1003.5
2023-05-12T10:43:14.156Z,1003.5
2023-05-12T10:44:30.396Z,1003.5
2023-05-12T10:45:46.635Z,1003.5
2023-05-12T10:47:02.875Z,1003.5
2023-05-12T10:48:19.115Z,1003.5
2023-05-12T10:49:35.354Z,1003.5
2023-05-12T10:50:51.593Z,1003.5
2023-05-12T10:52:06.849Z,1003.5
2023-05-12T10:53:23.088Z,1003.5
2023-05-12T10:54:39.327Z,1003.5
2023-05-12T10:55:55.548Z,1003.5
2023-05-12T10:57:11.806Z,1003.5
2023-05-12T10:58:28.045Z,1003.5
2023-05-12T10:59:44.284Z,1003.5
2023-05-12T11:01:00.523Z,1003.5
2023-05-12T11:02:16.731Z,1003.5
2023-05-12T11:03:33.000Z,1003.5
2023-05-12T11:04:49.207Z,1003.5
2023-05-12T11:06:05.477Z,1003.4
2023-05-12T11:07:21.000Z,1003.5
2023-05-12T11:08:36.000Z,1003.4
2023-05-12T11:09:53.000Z,1003.4
2023-05-12T11:11:09.449Z,1003.4
2023-05-12T11:12:25.688Z,1003.4
2023-05-12T11:13:41.927Z,1003.5
2023-05-12T11:14:58.166Z,1003.4
2023-05-12T11:16:14.405Z,1003.4
2023-05-12T11:17:30.000Z,1003.5
2023-05-12T11:18:46.000Z,1003.4
2023-05-12T11:20:03.119Z,1003.4
2023-05-12T11:21:19.358Z,1003.5
2023-05-12T11:22:35.596Z,1003.5
2023-05-12T11:23:51.835Z,1003.5
2023-05-12T11:25:07.089Z,1003.5
2023-05-12T11:26:23.328Z,1003.5
2023-05-12T11:27:39.567Z,1003.5
2023-05-12T11:28:55.805Z,1003.5
2023-05-12T11:30:12.013Z,1003.4
2023-05-12T11:31:28.282Z,1003.5
2023-05-12T11:32:44.520Z,1003.5
2023-05-12T11:34:00.758Z,1003.5
2023-05-12T11:35:16.997Z,1003.5
2023-05-12T11:36:33.235Z,1003.5
2023-05-12T11:37:49.473Z,1003.5
2023-05-12T11:39:05.712Z,1003.4
2023-05-12T11:40:21.950Z,1003.5
2023-05-12T11:41:37.205Z,1003.6
2023-05-12T11:42:53.443Z,1003.6
2023-05-12T11:44:09.681Z,1003.5
2023-05-12T11:45:25.920Z,1003.6
2023-05-12T11:46:42.158Z,1003.5
2023-05-12T11:47:58.397Z,1003.5
2023-05-12T11:49:14.635Z,1003.5
2023-05-12T11:50:30.874Z,1003.5
2023-05-12T11:51:47.112Z,1003.6
2023-05-12T11:53:03.350Z,1003.5
2023-05-12T11:54:19.589Z,1003.5
2023-05-12T11:55:35.806Z,1003.5
2023-05-12T11:56:52.067Z,1003.5
2023-05-12T11:58:07.322Z,1003.5
2023-05-12T11:59:23.561Z,1003.5
2023-05-12T12:00:39.800Z,1003.5
2023-05-12T12:01:56.000Z,1003.5
2023-05-12T12:03:12.277Z,1003.5
2023-05-12T12:04:28.515Z,1003.5
2023-05-12T12:05:44.737Z,1003.5
2023-05-12T12:07:00.992Z,1003.4
2023-05-12T12:08:17.231Z,1003.3
2023-05-12T12:09:33.469Z,1003.4
2023-05-12T12:10:49.691Z,1003.4
2023-05-12T12:12:05.946Z,1003.5
2023-05-12T12:13:22.184Z,1003.5
2023-05-12T12:14:37.439Z,1003.5
2023-05-12T12:15:53.677Z,1003.5
2023-05-12T12:17:09.915Z,1003.4
2023-05-12T12:18:26.121Z,1003.4
2023-05-12T12:19:42.392Z,1003.4
2023-05-12T12:20:58.617Z,1003.5
2023-05-12T12:22:13.890Z,1003.4
2023-05-12T12:23:30.104Z,1003.5
2023-05-12T12:24:46.336Z,1003.5
2023-05-12T12:26:02.577Z,1003.5
2023-05-12T12:27:18.845Z,1003.5
2023-05-12T12:28:35.105Z,1003.5
2023-05-12T12:29:51.302Z,1003.5
2023-05-12T12:31:07.560Z,1003.5
2023-05-12T12:32:23.770Z,1003.5
2023-05-12T12:33:40.037Z,1003.5
2023-05-12T12:34:56.275Z,1003.6
2023-05-12T12:36:12.514Z,1003.5
2023-05-12T12:37:28.725Z,1003.6
2023-05-12T12:38:44.006Z,1003.6
2023-05-12T12:40:00.245Z,1003.5
2023-05-12T12:41:16.483Z,1003.5
2023-05-12T12:42:32.736Z,1003.5
2023-05-12T12:43:48.931Z,1003.6
2023-05-12T12:45:05.165Z,1003.6
2023-05-12T12:46:21.437Z,1003.6
2023-05-12T12:47:37.647Z,1003.6
2023-05-12T12:48:53.914Z,1003.6
2023-05-12T12:50:10.179Z,1003.7
2023-05-12T12:51:26.391Z,1003.6
2023-05-12T12:52:42.656Z,1003.7
2023-05-12T12:53:58.853Z,1003.7
2023-05-12T12:55:14.123Z,1003.6
2023-05-12T12:56:30.332Z,1003.6
2023-05-12T12:57:46.567Z,1003.6
2023-05-12T12:59:02.838Z,1003.6
2023-05-12T13:00:19.061Z,1003.6
2023-05-12T13:01:35.314Z,1003.6
2023-05-12T13:02:51.584Z,1003.6
2023-05-12T13:04:07.791Z,1003.6
2023-05-12T13:05:24.049Z,1003.6
2023-05-12T13:06:40.268Z,1003.6
2023-05-12T13:07:56.523Z,1003.6
2023-05-12T13:09:12.745Z,1003.6
2023-05-12T13:10:28.954Z,1003.6
2023-05-12T13:11:44.209Z,1003.6
2023-05-12T13:13:00.496Z,1003.6
2023-05-12T13:14:16.716Z,1003.6
2023-05-12T13:15:32.920Z,1003.6
2023-05-12T13:16:49.177Z,1003.6
2023-05-12T13:18:05.399Z,1003.6
2023-05-12T13:19:21.669Z,1003.6
2023-05-12T13:20:37.908Z,1003.7
2023-05-12T13:21:54.146Z,1003.7
2023-05-12T13:23:10.412Z,1003.7
2023-05-12T13:24:26.623Z,1003.6
2023-05-12T13:25:42.861Z,1003.6
2023-05-12T13:26:59.100Z,1003.7
2023-05-12T13:28:14.354Z,1003.6
2023-05-12T13:29:30.562Z,1003.7
2023-05-12T13:30:46.831Z,1003.6
2023-05-12T13:32:03.037Z,1003.6
2023-05-12T13:33:19.308Z,1003.6
2023-05-12T13:34:35.000Z,1003.6
2023-05-12T13:35:51.765Z,1003.6
2023-05-12T13:37:08.023Z,1003.6
2023-05-12T13:38:24.262Z,1003.6
2023-05-12T13:39:40.470Z,1003.6
2023-05-12T13:40:56.715Z,1003.5
2023-05-12T13:42:12.948Z,1003.5
2023-05-12T13:43:29.181Z,1003.5
2023-05-12T13:44:44.469Z,1003.5
2023-05-12T13:46:00.739Z,1003.5
2023-05-12T13:47:16.945Z,1003.4
2023-05-12T13:48:33.162Z,1003.5
2023-05-12T13:49:49.391Z,1003.5
2023-05-12T13:51:05.661Z,1003.4
2023-05-12T13:52:21.870Z,1003.5
2023-05-12T13:53:38.155Z,1003.5
2023-05-12T13:54:54.377Z,1003.4
2023-05-12T13:56:10.589Z,1003.5
2023-05-12T13:57:26.853Z,1003.5
2023-05-12T13:58:43.059Z,1003.6
2023-05-12T13:59:59.304Z,1003.5
2023-05-12T14:01:14.585Z,1003.5
2023-05-12T14:02:30.823Z,1003.5
2023-05-12T14:03:47.062Z,1003.5
2023-05-12T14:05:03.276Z,1003.5
2023-05-12T14:06:19.513Z,1003.5
2023-05-12T14:07:35.745Z,1003.5
2023-05-12T14:08:51.983Z,1003.5
2023-05-12T14:10:08.000Z,1003.5
2023-05-12T14:11:24.476Z,1003.5
2023-05-12T14:12:40.000Z,1003.5
2023-05-12T14:13:56.000Z,1003.6
2023-05-12T14:15:13.207Z,1003.5
2023-05-12T14:16:29.464Z,1003.5
2023-05-12T14:17:44.669Z,1003.5
2023-05-12T14:19:00.000Z,1003.5
2023-05-12T14:20:17.160Z,1003.5
2023-05-12T14:21:33.386Z,1003.5
2023-05-12T14:22:49.626Z,1003.5
2023-05-12T14:24:05.922Z,1003.5
2023-05-12T14:25:22.129Z,1003.5
2023-05-12T14:26:38.395Z,1003.5
2023-05-12T14:27:54.606Z,1003.5
2023-05-12T14:29:10.870Z,1003.5
2023-05-12T14:30:27.083Z,1003.5
2023-05-12T14:31:43.349Z,1003.5
2023-05-12T14:32:59.560Z,1003.5
2023-05-12T14:34:14.814Z,1003.5
2023-05-12T14:35:31.029Z,1003.5
2023-05-12T14:36:47.266Z,1003.5
2023-05-12T14:38:03.529Z,1003.5
2023-05-12T14:39:19.798Z,1003.6
2023-05-12T14:40:36.005Z,1003.5
2023-05-12T14:41:52.266Z,1003.5
2023-05-12T14:43:08.461Z,1003.5
2023-05-12T14:44:24.701Z,1003.6
2023-05-12T14:45:40.982Z,1003.6
2023-05-12T14:46:57.173Z,1003.6
2023-05-12T14:48:13.436Z,1003.6
2023-05-12T14:49:29.709Z,1003.7
2023-05-12T14:50:44.904Z,1003.7
2023-05-12T14:52:01.141Z,1003.7
2023-05-12T14:53:17.405Z,1003.7
2023-05-12T14:54:33.620Z,1003.7
2023-05-12T14:55:49.882Z,1003.7
2023-05-12T14:57:06.088Z,1003.7
2023-05-12T14:58:22.359Z,1003.7
2023-05-12T14:59:38.627Z,1003.7
2023-05-12T15:00:54.835Z,1003.7
2023-05-12T15:02:11.101Z,1003.7
2023-05-12T15:03:27.312Z,1003.7
2023-05-12T15:04:43.550Z,1003.7
2023-05-12T15:05:59.759Z,1003.7
2023-05-12T15:07:15.044Z,1003.6
2023-05-12T15:08:31.247Z,1003.6
2023-05-12T15:09:47.492Z,1003.6
2023-05-12T15:11:03.759Z,1003.6
2023-05-12T15:12:19.975Z,1003.6
2023-05-12T15:13:36.237Z,1003.6
2023-05-12T15:14:52.460Z,1003.6
2023-05-12T15:16:08.686Z,1003.6
2023-05-12T15:17:24.977Z,1003.6
2023-05-12T15:18:41.192Z,1003.6
2023-05-12T15:19:57.397Z,1003.6
2023-05-12T15:21:13.637Z,1003.6
2023-05-12T15:22:29.909Z,1003.6
2023-05-12T15:23:45.000Z,1003.6
2023-05-12T15:25:01.402Z,1003.6
2023-05-12T15:26:17.640Z,1003.6
2023-05-12T15:27:33.878Z,1003.6
2023-05-12T15:28:50.117Z,1003.6
2023-05-12T15:30:06.355Z,1003.6
2023-05-12T15:31:22.593Z,1003.6
2023-05-12T15:32:38.832Z,1003.6
2023-05-12T15:33:55.070Z,1003.5
2023-05-12T15:35:11.309Z,1003.5
2023-05-12T15:36:27.547Z,1003.6
2023-05-12T15:37:43.769Z,1003.5
2023-05-12T15:39:00.026Z,1003.5
2023-05-12T15:40:15.280Z,1003.5
2023-05-12T15:41:31.519Z,1003.5
2023-05-12T15:42:47.758Z,1003.5
2023-05-12T15:44:03.996Z,1003.6
2023-05-12T15:45:20.235Z,1003.5
2023-05-12T15:46:36.449Z,1003.5
2023-05-12T15:47:52.712Z,1003.5
2023-05-12T15:49:08.951Z,1003.5
2023-05-12T15:50:25.190Z,1003.5
2023-05-12T15:51:41.428Z,1003.5
2023-05-12T15:52:57.667Z,1003.5
2023-05-12T15:54:13.942Z,1003.5
2023-05-12T15:55:30.143Z,1003.5
2023-05-12T15:56:45.398Z,1003.4